sensor_id;sensor_type;location;lat;lon;timestamp;P1;durP1;ratioP1;P2;durP2;ratioP2
9739;SDS011;4909;42.680;26.324;2023-08-17T00:02:04;459.17;;;418.97;;
9739;SDS011;4909;42.680;26.324;2023-08-17T00:04:31;471.00;;;430.37;;
9739;SDS011;4909;42.680;26.324;2023-08-17T00:06:58;444.37;;;404.13;;
9739;SDS011;4909;42.680;26.324;2023-08-17T00:09:24;444.77;;;404.80;;
9739;SDS011;4909;42.680;26.324;2023-08-17T00:11:52;454.73;;;414.77;;
9739;SDS011;4909;42.680;26.324;2023-08-17T00:14:19;457.20;;;416.97;;
9739;SDS011;4909;42.680;26.324;2023-08-17T00:16:47;450.73;;;410.73;;
9739;SDS011;4909;42.680;26.324;2023-08-17T00:19:15;465.40;;;424.90;;
9739;SDS011;4909;42.680;26.324;2023-08-17T00:21:42;457.63;;;417.67;;
9739;SDS011;4909;42.680;26.324;2023-08-17T00:24:10;454.50;;;414.23;;
9739;SDS011;4909;42.680;26.324;2023-08-17T00:26:37;448.73;;;408.60;;
9739;SDS011;4909;42.680;26.324;2023-08-17T00:29:04;442.30;;;402.40;;
9739;SDS011;4909;42.680;26.324;2023-08-17T00:31:31;458.37;;;418.20;;
9739;SDS011;4909;42.680;26.324;2023-08-17T00:33:59;451.47;;;410.77;;
9739;SDS011;4909;42.680;26.324;2023-08-17T00:36:25;457.77;;;417.00;;
9739;SDS011;4909;42.680;26.324;2023-08-17T00:38:52;453.60;;;413.00;;
9739;SDS011;4909;42.680;26.324;2023-08-17T00:41:19;458.30;;;418.10;;
9739;SDS011;4909;42.680;26.324;2023-08-17T00:43:46;467.43;;;426.63;;
9739;SDS011;4909;42.680;26.324;2023-08-17T00:46:12;468.43;;;427.97;;
9739;SDS011;4909;42.680;26.324;2023-08-17T00:48:40;438.97;;;398.90;;
9739;SDS011;4909;42.680;26.324;2023-08-17T00:51:08;450.83;;;410.97;;
9739;SDS011;4909;42.680;26.324;2023-08-17T00:53:35;473.13;;;432.63;;
9739;SDS011;4909;42.680;26.324;2023-08-17T00:56:02;475.37;;;434.77;;
9739;SDS011;4909;42.680;26.324;2023-08-17T00:58:29;472.57;;;432.07;;
9739;SDS011;4909;42.680;26.324;2023-08-17T01:00:57;474.13;;;433.20;;
9739;SDS011;4909;42.680;26.324;2023-08-17T01:03:25;476.90;;;436.33;;
9739;SDS011;4909;42.680;26.324;2023-08-17T01:05:54;474.50;;;433.80;;
9739;SDS011;4909;42.680;26.324;2023-08-17T01:08:23;486.77;;;446.03;;
9739;SDS011;4909;42.680;26.324;2023-08-17T01:10:52;485.63;;;445.03;;
9739;SDS011;4909;42.680;26.324;2023-08-17T01:13:28;475.20;;;434.47;;
9739;SDS011;4909;42.680;26.324;2023-08-17T01:16:02;471.70;;;431.20;;
9739;SDS011;4909;42.680;26.324;2023-08-17T01:18:34;475.93;;;435.33;;
9739;SDS011;4909;42.680;26.324;2023-08-17T01:21:03;471.27;;;431.00;;
9739;SDS011;4909;42.680;26.324;2023-08-17T01:23:34;478.07;;;437.50;;
9739;SDS011;4909;42.680;26.324;2023-08-17T01:26:01;481.40;;;440.93;;
9739;SDS011;4909;42.680;26.324;2023-08-17T01:28:27;468.50;;;427.90;;
9739;SDS011;4909;42.680;26.324;2023-08-17T01:30:55;495.40;;;454.67;;
9739;SDS011;4909;42.680;26.324;2023-08-17T01:33:27;482.13;;;441.40;;
9739;SDS011;4909;42.680;26.324;2023-08-17T01:36:00;455.67;;;415.57;;
9739;SDS011;4909;42.680;26.324;2023-08-17T01:38:31;468.67;;;428.23;;
9739;SDS011;4909;42.680;26.324;2023-08-17T01:41:00;461.10;;;420.97;;
9739;SDS011;4909;42.680;26.324;2023-08-17T01:43:28;465.60;;;425.13;;
9739;SDS011;4909;42.680;26.324;2023-08-17T01:45:56;460.73;;;420.17;;
9739;SDS011;4909;42.680;26.324;2023-08-17T01:48:23;471.27;;;430.97;;
9739;SDS011;4909;42.680;26.324;2023-08-17T01:50:49;467.67;;;427.37;;
9739;SDS011;4909;42.680;26.324;2023-08-17T01:53:18;463.37;;;423.07;;
9739;SDS011;4909;42.680;26.324;2023-08-17T01:55:46;460.73;;;420.47;;
9739;SDS011;4909;42.680;26.324;2023-08-17T01:58:12;463.50;;;422.97;;
9739;SDS011;4909;42.680;26.324;2023-08-17T02:00:39;460.53;;;420.20;;
9739;SDS011;4909;42.680;26.324;2023-08-17T02:03:06;455.80;;;415.33;;
9739;SDS011;4909;42.680;26.324;2023-08-17T02:05:32;441.53;;;401.60;;
9739;SDS011;4909;42.680;26.324;2023-08-17T02:07:59;456.80;;;416.40;;
9739;SDS011;4909;42.680;26.324;2023-08-17T02:10:26;452.93;;;412.40;;
9739;SDS011;4909;42.680;26.324;2023-08-17T02:12:54;452.57;;;412.20;;
9739;SDS011;4909;42.680;26.324;2023-08-17T02:15:21;465.40;;;425.10;;
9739;SDS011;4909;42.680;26.324;2023-08-17T02:17:47;438.47;;;398.67;;
9739;SDS011;4909;42.680;26.324;2023-08-17T02:20:14;441.43;;;401.67;;
9739;SDS011;4909;42.680;26.324;2023-08-17T02:22:41;453.53;;;413.40;;
9739;SDS011;4909;42.680;26.324;2023-08-17T02:25:08;450.60;;;410.30;;
9739;SDS011;4909;42.680;26.324;2023-08-17T02:27:35;453.47;;;412.87;;
9739;SDS011;4909;42.680;26.324;2023-08-17T02:30:03;460.67;;;420.10;;
9739;SDS011;4909;42.680;26.324;2023-08-17T02:32:30;442.43;;;402.57;;
9739;SDS011;4909;42.680;26.324;2023-08-17T02:34:57;455.60;;;415.30;;
9739;SDS011;4909;42.680;26.324;2023-08-17T02:37:24;448.13;;;407.67;;
9739;SDS011;4909;42.680;26.324;2023-08-17T02:39:51;454.13;;;413.73;;
9739;SDS011;4909;42.680;26.324;2023-08-17T02:42:17;435.60;;;395.73;;
9739;SDS011;4909;42.680;26.324;2023-08-17T02:47:31;424.73;;;384.77;;
9739;SDS011;4909;42.680;26.324;2023-08-17T02:49:58;467.20;;;426.27;;
9739;SDS011;4909;42.680;26.324;2023-08-17T02:52:25;423.70;;;383.97;;
9739;SDS011;4909;42.680;26.324;2023-08-17T02:54:52;436.10;;;395.83;;
9739;SDS011;4909;42.680;26.324;2023-08-17T02:57:18;430.67;;;390.90;;
9739;SDS011;4909;42.680;26.324;2023-08-17T02:59:45;439.50;;;399.33;;
9739;SDS011;4909;42.680;26.324;2023-08-17T03:02:13;438.30;;;398.40;;
9739;SDS011;4909;42.680;26.324;2023-08-17T03:04:40;439.33;;;399.17;;
9739;SDS011;4909;42.680;26.324;2023-08-17T03:07:07;444.13;;;404.10;;
9739;SDS011;4909;42.680;26.324;2023-08-17T03:09:33;443.07;;;402.83;;
9739;SDS011;4909;42.680;26.324;2023-08-17T03:12:00;444.27;;;404.13;;
9739;SDS011;4909;42.680;26.324;2023-08-17T03:14:27;434.53;;;394.67;;
9739;SDS011;4909;42.680;26.324;2023-08-17T03:16:54;431.10;;;391.23;;
9739;SDS011;4909;42.680;26.324;2023-08-17T03:19:22;446.00;;;405.93;;
9739;SDS011;4909;42.680;26.324;2023-08-17T03:21:49;424.40;;;384.70;;
9739;SDS011;4909;42.680;26.324;2023-08-17T03:24:16;441.90;;;401.60;;
9739;SDS011;4909;42.680;26.324;2023-08-17T03:26:42;440.90;;;400.90;;
9739;SDS011;4909;42.680;26.324;2023-08-17T03:29:09;432.97;;;392.87;;
9739;SDS011;4909;42.680;26.324;2023-08-17T03:31:36;429.20;;;389.40;;
9739;SDS011;4909;42.680;26.324;2023-08-17T03:34:03;436.57;;;396.67;;
9739;SDS011;4909;42.680;26.324;2023-08-17T03:36:31;417.30;;;377.77;;
9739;SDS011;4909;42.680;26.324;2023-08-17T03:38:58;431.73;;;391.63;;
9739;SDS011;4909;42.680;26.324;2023-08-17T03:41:24;444.57;;;404.60;;
9739;SDS011;4909;42.680;26.324;2023-08-17T03:43:51;432.50;;;392.83;;
9739;SDS011;4909;42.680;26.324;2023-08-17T03:46:18;456.77;;;416.53;;
9739;SDS011;4909;42.680;26.324;2023-08-17T03:48:45;445.97;;;405.80;;
9739;SDS011;4909;42.680;26.324;2023-08-17T03:51:11;457.17;;;416.87;;
9739;SDS011;4909;42.680;26.324;2023-08-17T03:53:39;447.13;;;407.00;;
9739;SDS011;4909;42.680;26.324;2023-08-17T03:56:06;437.90;;;397.97;;
9739;SDS011;4909;42.680;26.324;2023-08-17T03:58:33;457.20;;;417.00;;
9739;SDS011;4909;42.680;26.324;2023-08-17T04:01:00;447.40;;;406.53;;
9739;SDS011;4909;42.680;26.324;2023-08-17T04:03:27;434.30;;;394.53;;
9739;SDS011;4909;42.680;26.324;2023-08-17T04:05:54;447.73;;;407.27;;
9739;SDS011;4909;42.680;26.324;2023-08-17T04:08:20;430.07;;;390.17;;
9739;SDS011;4909;42.680;26.324;2023-08-17T04:10:48;440.57;;;400.37;;
9739;SDS011;4909;42.680;26.324;2023-08-17T04:13:15;445.60;;;405.17;;
9739;SDS011;4909;42.680;26.324;2023-08-17T04:15:42;439.77;;;399.50;;
9739;SDS011;4909;42.680;26.324;2023-08-17T04:18:10;449.60;;;409.27;;
9739;SDS011;4909;42.680;26.324;2023-08-17T04:20:37;435.07;;;395.17;;
9739;SDS011;4909;42.680;26.324;2023-08-17T04:23:04;426.00;;;386.23;;
9739;SDS011;4909;42.680;26.324;2023-08-17T04:25:30;436.30;;;396.23;;
9739;SDS011;4909;42.680;26.324;2023-08-17T04:27:58;453.00;;;412.23;;
9739;SDS011;4909;42.680;26.324;2023-08-17T04:30:25;439.77;;;399.77;;
9739;SDS011;4909;42.680;26.324;2023-08-17T04:32:52;437.30;;;397.37;;
9739;SDS011;4909;42.680;26.324;2023-08-17T04:35:19;441.63;;;401.20;;
9739;SDS011;4909;42.680;26.324;2023-08-17T04:37:46;439.73;;;399.80;;
9739;SDS011;4909;42.680;26.324;2023-08-17T04:40:13;454.07;;;413.50;;
9739;SDS011;4909;42.680;26.324;2023-08-17T04:42:40;457.03;;;416.97;;
9739;SDS011;4909;42.680;26.324;2023-08-17T04:45:08;454.00;;;413.70;;
9739;SDS011;4909;42.680;26.324;2023-08-17T04:47:36;464.80;;;424.33;;
9739;SDS011;4909;42.680;26.324;2023-08-17T04:50:03;454.67;;;414.73;;
9739;SDS011;4909;42.680;26.324;2023-08-17T04:52:31;475.17;;;434.33;;
9739;SDS011;4909;42.680;26.324;2023-08-17T04:54:57;461.57;;;420.80;;
9739;SDS011;4909;42.680;26.324;2023-08-17T04:57:24;472.47;;;431.83;;
9739;SDS011;4909;42.680;26.324;2023-08-17T04:59:52;473.17;;;433.07;;
9739;SDS011;4909;42.680;26.324;2023-08-17T05:02:20;490.07;;;448.90;;
9739;SDS011;4909;42.680;26.324;2023-08-17T05:04:46;474.47;;;433.80;;
9739;SDS011;4909;42.680;26.324;2023-08-17T05:07:13;483.93;;;443.47;;
9739;SDS011;4909;42.680;26.324;2023-08-17T05:09:40;476.17;;;435.47;;
9739;SDS011;4909;42.680;26.324;2023-08-17T05:12:07;478.03;;;437.33;;
9739;SDS011;4909;42.680;26.324;2023-08-17T05:14:34;489.97;;;449.30;;
9739;SDS011;4909;42.680;26.324;2023-08-17T05:17:01;491.07;;;450.27;;
9739;SDS011;4909;42.680;26.324;2023-08-17T05:19:29;508.97;;;467.77;;
9739;SDS011;4909;42.680;26.324;2023-08-17T05:21:56;473.50;;;432.87;;
9739;SDS011;4909;42.680;26.324;2023-08-17T05:24:23;484.80;;;444.20;;
9739;SDS011;4909;42.680;26.324;2023-08-17T05:26:49;495.93;;;455.10;;
9739;SDS011;4909;42.680;26.324;2023-08-17T05:29:16;507.37;;;465.73;;
9739;SDS011;4909;42.680;26.324;2023-08-17T05:31:43;494.10;;;453.10;;
9739;SDS011;4909;42.680;26.324;2023-08-17T05:34:10;524.37;;;482.37;;
9739;SDS011;4909;42.680;26.324;2023-08-17T05:36:38;507.87;;;466.50;;
9739;SDS011;4909;42.680;26.324;2023-08-17T05:39:06;513.40;;;472.43;;
9739;SDS011;4909;42.680;26.324;2023-08-17T05:41:32;514.13;;;472.53;;
9739;SDS011;4909;42.680;26.324;2023-08-17T05:43:59;503.23;;;462.37;;
9739;SDS011;4909;42.680;26.324;2023-08-17T05:46:26;520.33;;;479.03;;
9739;SDS011;4909;42.680;26.324;2023-08-17T05:48:53;518.03;;;476.97;;
9739;SDS011;4909;42.680;26.324;2023-08-17T05:51:20;503.60;;;462.83;;
9739;SDS011;4909;42.680;26.324;2023-08-17T05:53:48;512.77;;;471.67;;
9739;SDS011;4909;42.680;26.324;2023-08-17T05:56:15;536.40;;;494.47;;
9739;SDS011;4909;42.680;26.324;2023-08-17T05:58:42;516.53;;;475.23;;
9739;SDS011;4909;42.680;26.324;2023-08-17T06:01:09;522.80;;;481.20;;
9739;SDS011;4909;42.680;26.324;2023-08-17T06:03:37;521.97;;;480.93;;
9739;SDS011;4909;42.680;26.324;2023-08-17T06:06:04;539.63;;;498.17;;
9739;SDS011;4909;42.680;26.324;2023-08-17T06:08:31;531.93;;;490.57;;
9739;SDS011;4909;42.680;26.324;2023-08-17T06:11:00;525.13;;;484.17;;
9739;SDS011;4909;42.680;26.324;2023-08-17T06:13:26;542.77;;;501.47;;
9739;SDS011;4909;42.680;26.324;2023-08-17T06:15:54;540.03;;;499.03;;
9739;SDS011;4909;42.680;26.324;2023-08-17T06:18:22;561.83;;;519.37;;
9739;SDS011;4909;42.680;26.324;2023-08-17T06:20:49;538.40;;;496.87;;
9739;SDS011;4909;42.680;26.324;2023-08-17T06:23:18;549.70;;;507.90;;
9739;SDS011;4909;42.680;26.324;2023-08-17T06:25:45;562.17;;;520.63;;
9739;SDS011;4909;42.680;26.324;2023-08-17T06:28:13;564.27;;;522.50;;
9739;SDS011;4909;42.680;26.324;2023-08-17T06:30:40;561.20;;;519.70;;
9739;SDS011;4909;42.680;26.324;2023-08-17T06:33:07;584.67;;;542.10;;
9739;SDS011;4909;42.680;26.324;2023-08-17T06:35:34;570.63;;;528.63;;
9739;SDS011;4909;42.680;26.324;2023-08-17T06:38:01;574.17;;;532.27;;
9739;SDS011;4909;42.680;26.324;2023-08-17T06:40:27;580.60;;;538.63;;
9739;SDS011;4909;42.680;26.324;2023-08-17T06:42:54;572.17;;;530.50;;
9739;SDS011;4909;42.680;26.324;2023-08-17T06:45:22;576.97;;;534.80;;
9739;SDS011;4909;42.680;26.324;2023-08-17T06:47:49;578.97;;;537.07;;
9739;SDS011;4909;42.680;26.324;2023-08-17T06:50:16;580.90;;;538.67;;
9739;SDS011;4909;42.680;26.324;2023-08-17T06:52:42;570.17;;;528.17;;
9739;SDS011;4909;42.680;26.324;2023-08-17T06:55:10;554.30;;;512.87;;
9739;SDS011;4909;42.680;26.324;2023-08-17T06:57:36;590.70;;;548.67;;
9739;SDS011;4909;42.680;26.324;2023-08-17T07:00:04;570.67;;;528.73;;
9739;SDS011;4909;42.680;26.324;2023-08-17T07:02:33;590.83;;;548.63;;
9739;SDS011;4909;42.680;26.324;2023-08-17T07:05:00;589.67;;;547.53;;
9739;SDS011;4909;42.680;26.324;2023-08-17T07:07:28;600.43;;;558.17;;
9739;SDS011;4909;42.680;26.324;2023-08-17T07:09:56;586.70;;;544.90;;
9739;SDS011;4909;42.680;26.324;2023-08-17T07:12:23;612.90;;;570.40;;
9739;SDS011;4909;42.680;26.324;2023-08-17T07:14:50;599.03;;;556.83;;
9739;SDS011;4909;42.680;26.324;2023-08-17T07:17:17;605.80;;;563.40;;
9739;SDS011;4909;42.680;26.324;2023-08-17T07:19:45;607.00;;;564.97;;
9739;SDS011;4909;42.680;26.324;2023-08-17T07:22:12;585.80;;;543.90;;
9739;SDS011;4909;42.680;26.324;2023-08-17T07:24:39;606.37;;;564.23;;
9739;SDS011;4909;42.680;26.324;2023-08-17T07:27:05;608.57;;;566.07;;
9739;SDS011;4909;42.680;26.324;2023-08-17T07:29:32;589.07;;;546.93;;
9739;SDS011;4909;42.680;26.324;2023-08-17T07:31:59;589.30;;;547.40;;
9739;SDS011;4909;42.680;26.324;2023-08-17T07:34:27;582.53;;;540.87;;
9739;SDS011;4909;42.680;26.324;2023-08-17T07:36:55;583.47;;;541.10;;
9739;SDS011;4909;42.680;26.324;2023-08-17T07:39:22;587.60;;;545.50;;
9739;SDS011;4909;42.680;26.324;2023-08-17T07:41:49;604.83;;;562.97;;
9739;SDS011;4909;42.680;26.324;2023-08-17T07:44:15;595.13;;;553.10;;
9739;SDS011;4909;42.680;26.324;2023-08-17T07:46:42;595.47;;;553.77;;
9739;SDS011;4909;42.680;26.324;2023-08-17T07:49:09;590.57;;;549.03;;
9739;SDS011;4909;42.680;26.324;2023-08-17T07:51:36;595.33;;;553.00;;
9739;SDS011;4909;42.680;26.324;2023-08-17T07:54:04;608.10;;;565.40;;
9739;SDS011;4909;42.680;26.324;2023-08-17T07:56:31;610.70;;;568.20;;
9739;SDS011;4909;42.680;26.324;2023-08-17T07:58:57;601.67;;;559.57;;
9739;SDS011;4909;42.680;26.324;2023-08-17T08:01:24;602.63;;;559.83;;
9739;SDS011;4909;42.680;26.324;2023-08-17T08:03:51;608.10;;;565.87;;
9739;SDS011;4909;42.680;26.324;2023-08-17T08:06:18;610.43;;;568.07;;
9739;SDS011;4909;42.680;26.324;2023-08-17T08:08:45;609.43;;;566.87;;
9739;SDS011;4909;42.680;26.324;2023-08-17T08:11:13;587.10;;;544.50;;
9739;SDS011;4909;42.680;26.324;2023-08-17T08:13:40;600.80;;;558.50;;
9739;SDS011;4909;42.680;26.324;2023-08-17T08:16:07;604.27;;;562.23;;
9739;SDS011;4909;42.680;26.324;2023-08-17T08:18:34;587.53;;;545.53;;
9739;SDS011;4909;42.680;26.324;2023-08-17T08:21:00;593.53;;;551.50;;
9739;SDS011;4909;42.680;26.324;2023-08-17T08:23:27;610.53;;;568.17;;
9739;SDS011;4909;42.680;26.324;2023-08-17T08:25:54;590.80;;;548.80;;
9739;SDS011;4909;42.680;26.324;2023-08-17T08:28:24;607.67;;;565.27;;
9739;SDS011;4909;42.680;26.324;2023-08-17T08:30:51;606.70;;;564.80;;
9739;SDS011;4909;42.680;26.324;2023-08-17T08:33:18;600.67;;;558.73;;
9739;SDS011;4909;42.680;26.324;2023-08-17T08:35:45;611.10;;;569.13;;
9739;SDS011;4909;42.680;26.324;2023-08-17T08:38:13;598.67;;;556.90;;
9739;SDS011;4909;42.680;26.324;2023-08-17T08:40:40;592.30;;;550.20;;
9739;SDS011;4909;42.680;26.324;2023-08-17T08:43:08;599.03;;;557.13;;
9739;SDS011;4909;42.680;26.324;2023-08-17T08:45:37;616.40;;;573.80;;
9739;SDS011;4909;42.680;26.324;2023-08-17T08:48:06;612.80;;;570.63;;
9739;SDS011;4909;42.680;26.324;2023-08-17T08:50:35;621.10;;;579.00;;
9739;SDS011;4909;42.680;26.324;2023-08-17T08:53:03;617.47;;;574.90;;
9739;SDS011;4909;42.680;26.324;2023-08-17T08:55:37;616.50;;;574.40;;
9739;SDS011;4909;42.680;26.324;2023-08-17T08:58:05;635.93;;;592.97;;
9739;SDS011;4909;42.680;26.324;2023-08-17T09:00:32;619.87;;;576.97;;
9739;SDS011;4909;42.680;26.324;2023-08-17T09:03:02;635.70;;;593.13;;
9739;SDS011;4909;42.680;26.324;2023-08-17T09:05:31;633.03;;;590.50;;
9739;SDS011;4909;42.680;26.324;2023-08-17T09:08:00;626.53;;;583.60;;
9739;SDS011;4909;42.680;26.324;2023-08-17T09:10:28;626.53;;;584.40;;
9739;SDS011;4909;42.680;26.324;2023-08-17T09:12:55;621.10;;;578.63;;
9739;SDS011;4909;42.680;26.324;2023-08-17T09:15:22;614.93;;;572.83;;
9739;SDS011;4909;42.680;26.324;2023-08-17T09:17:49;628.50;;;586.30;;
9739;SDS011;4909;42.680;26.324;2023-08-17T09:23:04;649.07;;;605.97;;
9739;SDS011;4909;42.680;26.324;2023-08-17T09:25:35;615.90;;;573.63;;
9739;SDS011;4909;42.680;26.324;2023-08-17T09:28:06;621.23;;;578.77;;
9739;SDS011;4909;42.680;26.324;2023-08-17T09:30:34;644.90;;;602.13;;
9739;SDS011;4909;42.680;26.324;2023-08-17T09:33:15;639.87;;;597.57;;
9739;SDS011;4909;42.680;26.324;2023-08-17T09:35:44;645.27;;;602.53;;
9739;SDS011;4909;42.680;26.324;2023-08-17T09:38:10;625.67;;;583.43;;
9739;SDS011;4909;42.680;26.324;2023-08-17T09:40:37;639.80;;;596.80;;
9739;SDS011;4909;42.680;26.324;2023-08-17T09:43:04;624.37;;;581.97;;
9739;SDS011;4909;42.680;26.324;2023-08-17T09:45:31;628.03;;;585.60;;
9739;SDS011;4909;42.680;26.324;2023-08-17T09:47:58;617.60;;;575.30;;
9739;SDS011;4909;42.680;26.324;2023-08-17T09:50:25;641.93;;;599.57;;
9739;SDS011;4909;42.680;26.324;2023-08-17T09:52:53;639.53;;;597.13;;
9739;SDS011;4909;42.680;26.324;2023-08-17T09:55:21;620.63;;;578.70;;
9739;SDS011;4909;42.680;26.324;2023-08-17T09:57:48;639.23;;;596.73;;
9739;SDS011;4909;42.680;26.324;2023-08-17T10:00:16;626.50;;;583.97;;
9739;SDS011;4909;42.680;26.324;2023-08-17T10:02:44;621.57;;;579.20;;
9739;SDS011;4909;42.680;26.324;2023-08-17T10:05:11;648.37;;;605.83;;
9739;SDS011;4909;42.680;26.324;2023-08-17T10:07:41;635.40;;;593.20;;
9739;SDS011;4909;42.680;26.324;2023-08-17T10:10:13;625.60;;;583.10;;
9739;SDS011;4909;42.680;26.324;2023-08-17T10:12:47;641.17;;;598.83;;
9739;SDS011;4909;42.680;26.324;2023-08-17T10:15:18;624.40;;;582.00;;
9739;SDS011;4909;42.680;26.324;2023-08-17T10:17:49;644.20;;;602.00;;
9739;SDS011;4909;42.680;26.324;2023-08-17T10:20:23;633.23;;;590.60;;
9739;SDS011;4909;42.680;26.324;2023-08-17T10:22:54;646.80;;;604.10;;
9739;SDS011;4909;42.680;26.324;2023-08-17T10:25:29;658.77;;;616.13;;
9739;SDS011;4909;42.680;26.324;2023-08-17T10:27:56;640.87;;;598.47;;
9739;SDS011;4909;42.680;26.324;2023-08-17T10:30:25;642.73;;;600.03;;
9739;SDS011;4909;42.680;26.324;2023-08-17T10:32:52;647.80;;;605.40;;
9739;SDS011;4909;42.680;26.324;2023-08-17T10:35:19;654.27;;;611.73;;
9739;SDS011;4909;42.680;26.324;2023-08-17T10:37:46;622.43;;;580.33;;
9739;SDS011;4909;42.680;26.324;2023-08-17T10:40:13;644.33;;;601.63;;
9739;SDS011;4909;42.680;26.324;2023-08-17T10:42:41;651.43;;;608.80;;
9739;SDS011;4909;42.680;26.324;2023-08-17T10:45:27;662.13;;;619.03;;
9739;SDS011;4909;42.680;26.324;2023-08-17T10:50:58;665.33;;;622.53;;
9739;SDS011;4909;42.680;26.324;2023-08-17T10:53:27;659.50;;;616.80;;
9739;SDS011;4909;42.680;26.324;2023-08-17T10:56:00;665.40;;;622.30;;
9739;SDS011;4909;42.680;26.324;2023-08-17T10:58:31;660.20;;;617.10;;
9739;SDS011;4909;42.680;26.324;2023-08-17T11:00:59;663.87;;;620.83;;
9739;SDS011;4909;42.680;26.324;2023-08-17T11:03:26;649.47;;;607.07;;
9739;SDS011;4909;42.680;26.324;2023-08-17T11:05:53;671.60;;;628.73;;
9739;SDS011;4909;42.680;26.324;2023-08-17T11:08:21;669.27;;;626.40;;
9739;SDS011;4909;42.680;26.324;2023-08-17T11:10:57;668.17;;;625.27;;
9739;SDS011;4909;42.680;26.324;2023-08-17T11:13:27;677.13;;;633.60;;
9739;SDS011;4909;42.680;26.324;2023-08-17T11:15:56;664.03;;;621.57;;
9739;SDS011;4909;42.680;26.324;2023-08-17T11:18:23;676.90;;;633.67;;
9739;SDS011;4909;42.680;26.324;2023-08-17T11:20:50;667.73;;;624.97;;
9739;SDS011;4909;42.680;26.324;2023-08-17T11:23:17;676.47;;;633.30;;
9739;SDS011;4909;42.680;26.324;2023-08-17T11:25:46;675.27;;;631.80;;
9739;SDS011;4909;42.680;26.324;2023-08-17T11:28:13;666.97;;;624.07;;
9739;SDS011;4909;42.680;26.324;2023-08-17T11:30:39;676.63;;;633.57;;
9739;SDS011;4909;42.680;26.324;2023-08-17T11:33:09;679.77;;;636.40;;
9739;SDS011;4909;42.680;26.324;2023-08-17T11:35:37;666.07;;;623.00;;
9739;SDS011;4909;42.680;26.324;2023-08-17T11:38:04;665.83;;;622.87;;
9739;SDS011;4909;42.680;26.324;2023-08-17T11:40:31;666.57;;;623.60;;
9739;SDS011;4909;42.680;26.324;2023-08-17T11:43:00;666.27;;;623.20;;
9739;SDS011;4909;42.680;26.324;2023-08-17T11:45:27;666.03;;;622.63;;
9739;SDS011;4909;42.680;26.324;2023-08-17T11:47:54;658.67;;;616.30;;
9739;SDS011;4909;42.680;26.324;2023-08-17T11:50:24;658.67;;;615.57;;
9739;SDS011;4909;42.680;26.324;2023-08-17T11:52:51;654.27;;;611.50;;
9739;SDS011;4909;42.680;26.324;2023-08-17T11:55:18;658.07;;;614.97;;
9739;SDS011;4909;42.680;26.324;2023-08-17T11:57:45;673.97;;;631.17;;
9739;SDS011;4909;42.680;26.324;2023-08-17T12:00:16;663.83;;;620.70;;
9739;SDS011;4909;42.680;26.324;2023-08-17T12:02:46;661.53;;;618.53;;
9739;SDS011;4909;42.680;26.324;2023-08-17T12:05:18;645.07;;;602.93;;
9739;SDS011;4909;42.680;26.324;2023-08-17T12:07:46;665.40;;;622.40;;
9739;SDS011;4909;42.680;26.324;2023-08-17T12:10:13;658.10;;;615.37;;
9739;SDS011;4909;42.680;26.324;2023-08-17T12:12:40;660.53;;;617.50;;
9739;SDS011;4909;42.680;26.324;2023-08-17T12:15:09;659.97;;;617.47;;
9739;SDS011;4909;42.680;26.324;2023-08-17T12:17:37;645.23;;;602.83;;
9739;SDS011;4909;42.680;26.324;2023-08-17T12:20:14;657.13;;;614.80;;
9739;SDS011;4909;42.680;26.324;2023-08-17T12:22:42;657.87;;;615.23;;
9739;SDS011;4909;42.680;26.324;2023-08-17T12:25:10;648.40;;;605.70;;
9739;SDS011;4909;42.680;26.324;2023-08-17T12:27:37;655.57;;;612.87;;
9739;SDS011;4909;42.680;26.324;2023-08-17T12:30:04;645.27;;;602.80;;
9739;SDS011;4909;42.680;26.324;2023-08-17T12:32:37;653.43;;;610.77;;
9739;SDS011;4909;42.680;26.324;2023-08-17T12:35:04;666.77;;;624.10;;
9739;SDS011;4909;42.680;26.324;2023-08-17T12:37:32;664.07;;;621.10;;
9739;SDS011;4909;42.680;26.324;2023-08-17T12:39:59;678.60;;;635.47;;
9739;SDS011;4909;42.680;26.324;2023-08-17T12:42:27;671.07;;;627.60;;
9739;SDS011;4909;42.680;26.324;2023-08-17T12:44:53;675.87;;;632.73;;
9739;SDS011;4909;42.680;26.324;2023-08-17T12:47:20;671.87;;;628.47;;
9739;SDS011;4909;42.680;26.324;2023-08-17T12:49:47;668.40;;;625.67;;
9739;SDS011;4909;42.680;26.324;2023-08-17T12:52:14;652.87;;;609.83;;
9739;SDS011;4909;42.680;26.324;2023-08-17T12:54:40;666.70;;;623.90;;
9739;SDS011;4909;42.680;26.324;2023-08-17T12:57:07;651.87;;;609.27;;
9739;SDS011;4909;42.680;26.324;2023-08-17T12:59:35;651.07;;;608.00;;
9739;SDS011;4909;42.680;26.324;2023-08-17T13:02:02;653.03;;;610.33;;
9739;SDS011;4909;42.680;26.324;2023-08-17T13:04:29;672.50;;;629.70;;
9739;SDS011;4909;42.680;26.324;2023-08-17T13:06:55;668.70;;;625.67;;
9739;SDS011;4909;42.680;26.324;2023-08-17T13:09:22;667.87;;;624.70;;
9739;SDS011;4909;42.680;26.324;2023-08-17T13:11:49;671.10;;;627.60;;
9739;SDS011;4909;42.680;26.324;2023-08-17T13:14:16;667.47;;;624.07;;
9739;SDS011;4909;42.680;26.324;2023-08-17T13:16:44;666.10;;;622.73;;
9739;SDS011;4909;42.680;26.324;2023-08-17T13:19:11;673.83;;;630.77;;
9739;SDS011;4909;42.680;26.324;2023-08-17T13:21:37;668.33;;;625.73;;
9739;SDS011;4909;42.680;26.324;2023-08-17T13:24:04;675.93;;;632.53;;
9739;SDS011;4909;42.680;26.324;2023-08-17T13:26:31;663.17;;;620.17;;
9739;SDS011;4909;42.680;26.324;2023-08-17T13:28:58;653.50;;;610.97;;
9739;SDS011;4909;42.680;26.324;2023-08-17T13:31:25;669.17;;;625.97;;
9739;SDS011;4909;42.680;26.324;2023-08-17T13:33:53;667.67;;;624.87;;
9739;SDS011;4909;42.680;26.324;2023-08-17T13:36:20;678.20;;;634.97;;
9739;SDS011;4909;42.680;26.324;2023-08-17T13:38:47;672.40;;;629.27;;
9739;SDS011;4909;42.680;26.324;2023-08-17T13:41:14;661.47;;;618.63;;
9739;SDS011;4909;42.680;26.324;2023-08-17T13:43:40;661.03;;;618.50;;
9739;SDS011;4909;42.680;26.324;2023-08-17T13:46:07;665.37;;;623.03;;
9739;SDS011;4909;42.680;26.324;2023-08-17T13:48:34;656.87;;;614.00;;
9739;SDS011;4909;42.680;26.324;2023-08-17T13:51:05;669.70;;;626.77;;
9739;SDS011;4909;42.680;26.324;2023-08-17T13:53:31;673.03;;;629.77;;
9739;SDS011;4909;42.680;26.324;2023-08-17T13:55:58;652.63;;;610.37;;
9739;SDS011;4909;42.680;26.324;2023-08-17T13:58:25;682.60;;;639.60;;
9739;SDS011;4909;42.680;26.324;2023-08-17T14:00:52;652.90;;;610.47;;
9739;SDS011;4909;42.680;26.324;2023-08-17T14:03:19;673.00;;;629.60;;
9739;SDS011;4909;42.680;26.324;2023-08-17T14:05:45;653.80;;;610.77;;
9739;SDS011;4909;42.680;26.324;2023-08-17T14:08:14;671.33;;;628.23;;
9739;SDS011;4909;42.680;26.324;2023-08-17T14:10:40;665.50;;;622.90;;
9739;SDS011;4909;42.680;26.324;2023-08-17T14:13:07;674.23;;;631.50;;
9739;SDS011;4909;42.680;26.324;2023-08-17T14:15:34;674.77;;;631.63;;
9739;SDS011;4909;42.680;26.324;2023-08-17T14:18:00;671.53;;;628.60;;
9739;SDS011;4909;42.680;26.324;2023-08-17T14:20:28;673.43;;;630.40;;